Airport View

Enter AWOS ICAO identifier for current METAR.

ex. KFNL

KGDJ 112155Z AUTO 18007KT 10SM CLR 12/03 A3043 RMK AO2 T01180030

11 Dec 2019 22:10

Frequency: 118.925

Phone: 817-573-7514

Other Area AWOS: KCPT - KSEP - KMWL - KFWS

TAF KNFW 1120/1215 VRB06KT 9999 FEW015 SCT250 QNH3040INS FM112200 15009KT 9999 FEW018 SCT250 QNH3036INS FM120500 17012KT 6000 BR BKN010 OVC018 QNH3028INS TEMPO 1210/1214 4800 BR BKN 005 OVC012 T14/1122Z T01/1212Z AMD 2055 FN20046